createdAt,value
2023-01-17T00:01:45.755Z,1.53
2023-01-17T00:04:34.904Z,1.33
2023-01-17T00:07:24.282Z,1.40
2023-01-17T00:09:57.071Z,1.17
2023-01-17T00:12:29.903Z,2.90
2023-01-17T00:15:03.087Z,2.97
2023-01-17T00:17:38.778Z,3.73
2023-01-17T00:20:34.245Z,1.70
2023-01-17T00:23:28.590Z,1.87
2023-01-17T00:26:12.504Z,5.57
2023-01-17T00:28:44.519Z,1.07
2023-01-17T00:31:17.323Z,2.07
2023-01-17T00:33:49.365Z,2.23
2023-01-17T00:36:18.464Z,3.20
2023-01-17T00:38:49.107Z,1.33
2023-01-17T00:41:16.345Z,1.60
2023-01-17T00:44:06.570Z,1.83
2023-01-17T00:46:53.104Z,1.57
2023-01-17T00:49:43.647Z,1.10
2023-01-17T00:52:31.922Z,3.73
2023-01-17T00:55:19.095Z,4.83
2023-01-17T00:58:08.205Z,2.57
2023-01-17T01:00:54.867Z,5.40
2023-01-17T01:03:44.206Z,5.40
2023-01-17T01:06:33.901Z,3.53
2023-01-17T01:09:22.244Z,4.67
2023-01-17T01:12:08.243Z,2.47
2023-01-17T01:14:58.302Z,2.70
2023-01-17T01:17:44.832Z,3.13
2023-01-17T01:20:31.938Z,7.83
2023-01-17T01:23:24.666Z,19.70
2023-01-17T01:26:12.031Z,5.30
2023-01-17T01:28:58.862Z,8.83
2023-01-17T01:31:48.254Z,13.03
2023-01-17T01:34:15.933Z,2.27
2023-01-17T01:36:45.768Z,4.70
2023-01-17T01:39:21.846Z,6.17
2023-01-17T01:41:55.054Z,4.90
2023-01-17T01:44:49.455Z,5.87
2023-01-17T01:47:28.455Z,2.77
2023-01-17T01:50:03.248Z,7.90
2023-01-17T01:52:50.749Z,4.20
2023-01-17T01:55:34.128Z,6.17
2023-01-17T01:58:21.169Z,5.80
2023-01-17T02:00:53.413Z,4.50
2023-01-17T02:03:27.456Z,3.90
2023-01-17T02:06:04.980Z,2.33
2023-01-17T02:08:42.164Z,3.43
2023-01-17T02:11:13.181Z,6.67
2023-01-17T02:13:47.430Z,3.03
2023-01-17T02:16:54.063Z,9.87
2023-01-17T02:19:57.591Z,4.13
2023-01-17T02:23:01.818Z,1.17
2023-01-17T02:26:12.483Z,3.40
2023-01-17T02:29:27.318Z,2.53
2023-01-17T02:32:22.307Z,1.37
2023-01-17T02:35:11.394Z,13.27
2023-01-17T02:38:07.431Z,4.60
2023-01-17T02:40:49.801Z,1.90
2023-01-17T02:43:24.597Z,12.03
2023-01-17T02:45:54.755Z,1.53
2023-01-17T02:48:35.279Z,7.27
2023-01-17T02:51:11.337Z,7.93
2023-01-17T02:54:05.958Z,1.57
2023-01-17T03:00:17.609Z,3.73
2023-01-17T03:03:23.626Z,1.43
2023-01-17T03:06:15.008Z,2.10
2023-01-17T03:09:00.289Z,6.63
2023-01-17T03:11:31.007Z,4.20
2023-01-17T03:14:02.295Z,3.43
2023-01-17T03:16:33.649Z,4.00
2023-01-17T03:19:04.150Z,2.03
2023-01-17T03:21:34.737Z,5.63
2023-01-17T03:24:06.199Z,8.60
2023-01-17T03:26:36.842Z,6.20
2023-01-17T03:29:07.031Z,2.80
2023-01-17T03:31:44.031Z,5.73
2023-01-17T03:34:16.745Z,3.27
2023-01-17T03:36:48.034Z,2.70
2023-01-17T03:39:20.358Z,1.73
2023-01-17T03:41:51.280Z,1.77
2023-01-17T03:44:25.210Z,2.78
2023-01-17T03:46:56.700Z,3.30
2023-01-17T03:49:35.037Z,2.73
2023-01-17T03:52:05.338Z,2.00
2023-01-17T03:54:42.769Z,3.67
2023-01-17T03:57:20.523Z,2.90
2023-01-17T03:59:58.240Z,3.07
2023-01-17T04:02:27.539Z,2.37
2023-01-17T04:05:00.636Z,4.17
2023-01-17T04:07:29.989Z,1.97
2023-01-17T04:09:58.346Z,9.57
2023-01-17T04:12:34.577Z,1.50
2023-01-17T04:15:05.739Z,5.67
2023-01-17T04:17:39.639Z,2.35
2023-01-17T04:20:35.918Z,2.93
2023-01-17T04:23:08.132Z,4.10
2023-01-17T04:25:39.492Z,2.83
2023-01-17T04:28:21.382Z,2.70
2023-01-17T04:30:49.422Z,3.25
2023-01-17T04:33:26.461Z,1.93
2023-01-17T04:36:04.071Z,2.27
2023-01-17T04:38:32.589Z,4.50
2023-01-17T04:43:48.230Z,3.73
2023-01-17T04:48:53.195Z,4.87
2023-01-17T04:51:25.394Z,5.80
2023-01-17T04:54:03.188Z,1.50
2023-01-17T04:56:39.848Z,3.93
2023-01-17T04:59:13.205Z,2.57
2023-01-17T05:01:44.574Z,2.80
2023-01-17T05:04:18.312Z,1.40
2023-01-17T05:06:48.606Z,3.47
2023-01-17T05:09:19.093Z,6.93
2023-01-17T05:11:52.235Z,5.57
2023-01-17T05:14:29.357Z,11.57
2023-01-17T05:17:09.823Z,12.93
2023-01-17T05:19:42.128Z,3.33
2023-01-17T05:22:18.233Z,12.85
2023-01-17T05:24:48.746Z,2.73
2023-01-17T05:27:17.403Z,4.50
2023-01-17T05:29:47.661Z,3.53
2023-01-17T05:32:17.911Z,7.73
2023-01-17T05:34:53.622Z,7.13
2023-01-17T05:37:22.467Z,10.10
2023-01-17T05:39:59.390Z,10.03
2023-01-17T05:42:39.229Z,5.10
2023-01-17T05:45:17.334Z,14.32
2023-01-17T05:48:14.031Z,3.67
2023-01-17T05:50:44.888Z,8.27
2023-01-17T05:53:29.697Z,8.30
2023-01-17T05:55:57.402Z,13.17
2023-01-17T05:58:28.894Z,11.03
2023-01-17T06:00:58.993Z,4.47
2023-01-17T06:06:13.405Z,13.13
2023-01-17T06:08:49.799Z,6.57
2023-01-17T06:11:25.422Z,5.93
2023-01-17T06:13:55.367Z,2.27
2023-01-17T06:16:32.710Z,2.50
2023-01-17T06:19:01.516Z,14.50
2023-01-17T06:21:35.600Z,4.23
2023-01-17T06:24:18.167Z,4.03
2023-01-17T06:26:46.661Z,1.40
2023-01-17T06:29:17.942Z,6.47
2023-01-17T06:31:53.818Z,2.15
2023-01-17T06:34:24.960Z,3.80
2023-01-17T06:37:08.370Z,4.77
2023-01-17T06:39:49.002Z,5.47
2023-01-17T06:42:19.517Z,6.82
2023-01-17T06:44:55.962Z,1.87
2023-01-17T06:47:28.267Z,2.30
2023-01-17T06:50:06.041Z,2.17
2023-01-17T06:52:40.411Z,3.50
2023-01-17T06:55:14.189Z,4.13
2023-01-17T06:57:52.228Z,2.30
2023-01-17T07:00:23.096Z,1.37
2023-01-17T07:02:54.982Z,1.57
2023-01-17T07:05:38.879Z,1.17
2023-01-17T07:08:24.819Z,2.23
2023-01-17T07:11:00.647Z,1.30
2023-01-17T07:13:37.768Z,3.63
2023-01-17T07:16:11.894Z,2.30
2023-01-17T07:18:49.438Z,1.50
2023-01-17T07:21:26.476Z,1.43
2023-01-17T07:24:12.103Z,0.87
2023-01-17T07:26:43.916Z,1.33
2023-01-17T07:29:21.385Z,3.83
2023-01-17T07:31:55.717Z,2.73
2023-01-17T07:34:27.063Z,7.20
2023-01-17T07:36:57.803Z,9.75
2023-01-17T07:42:16.803Z,10.10
2023-01-17T07:45:14.298Z,3.07
2023-01-17T07:47:56.819Z,2.03
2023-01-17T07:50:30.295Z,7.47
2023-01-17T07:53:04.197Z,4.77
2023-01-17T07:55:44.305Z,2.50
2023-01-17T07:58:16.318Z,4.90
2023-01-17T08:00:56.263Z,6.07
2023-01-17T08:03:26.889Z,6.13
2023-01-17T08:06:00.512Z,9.97
2023-01-17T08:08:39.410Z,5.77
2023-01-17T08:11:08.774Z,3.20
2023-01-17T08:13:42.304Z,5.47
2023-01-17T08:16:19.272Z,4.27
2023-01-17T08:18:48.576Z,4.80
2023-01-17T08:21:28.825Z,6.20
2023-01-17T08:24:12.152Z,5.40
2023-01-17T08:26:45.757Z,6.03
2023-01-17T08:29:20.482Z,11.83
2023-01-17T08:31:53.945Z,11.00
2023-01-17T08:34:33.230Z,10.40
2023-01-17T08:37:17.477Z,5.73
2023-01-17T08:39:51.000Z,9.37
2023-01-17T08:42:22.908Z,11.17
2023-01-17T08:45:00.950Z,14.10
2023-01-17T08:47:30.027Z,12.20
2023-01-17T08:50:05.183Z,16.93
2023-01-17T08:52:45.545Z,14.00
2023-01-17T08:55:20.142Z,17.43
2023-01-17T08:57:49.131Z,13.57
2023-01-17T09:00:20.037Z,11.77
2023-01-17T09:03:10.516Z,8.37
2023-01-17T09:05:48.501Z,13.60
2023-01-17T09:08:28.283Z,11.10
2023-01-17T09:10:59.098Z,17.07
2023-01-17T09:13:30.624Z,15.20
2023-01-17T09:16:02.713Z,18.05
2023-01-17T09:18:42.984Z,14.27
2023-01-17T09:21:14.636Z,27.63
2023-01-17T09:23:46.154Z,10.23
2023-01-17T09:26:26.050Z,6.82
2023-01-17T09:29:00.547Z,11.87
2023-01-17T09:31:45.806Z,17.77
2023-01-17T09:34:16.433Z,19.40
2023-01-17T09:36:50.720Z,15.23
2023-01-17T09:39:20.875Z,14.37
2023-01-17T09:41:58.600Z,23.83
2023-01-17T09:44:58.537Z,10.43
2023-01-17T09:47:45.160Z,7.47
2023-01-17T09:50:38.267Z,23.20
2023-01-17T09:53:29.017Z,21.00
2023-01-17T09:56:27.646Z,15.07
2023-01-17T09:59:33.099Z,23.43
2023-01-17T10:02:27.968Z,10.47
2023-01-17T10:05:38.509Z,15.80
2023-01-17T10:08:29.890Z,13.53
2023-01-17T10:11:51.835Z,11.33
2023-01-17T10:14:58.556Z,13.35
2023-01-17T10:17:59.407Z,18.90
2023-01-17T10:20:52.043Z,10.67
2023-01-17T10:23:39.385Z,16.03
2023-01-17T10:26:17.957Z,22.50
2023-01-17T10:29:14.467Z,18.07
2023-01-17T10:32:02.482Z,16.70
2023-01-17T10:34:45.804Z,10.90
2023-01-17T10:37:52.208Z,14.20
2023-01-17T10:40:46.657Z,22.87
2023-01-17T10:43:57.334Z,21.37
2023-01-17T10:46:48.786Z,23.80
2023-01-17T10:49:22.124Z,26.07
2023-01-17T10:52:38.221Z,11.00
2023-01-17T10:55:57.389Z,20.13
2023-01-17T10:58:34.553Z,30.77
2023-01-17T11:01:34.138Z,6.37
2023-01-17T11:04:06.043Z,11.90
2023-01-17T11:06:57.291Z,19.40
2023-01-17T11:09:45.056Z,27.23
2023-01-17T11:12:53.580Z,10.90
2023-01-17T11:15:28.942Z,28.67
2023-01-17T11:18:21.893Z,18.17
2023-01-17T11:20:55.097Z,11.13
2023-01-17T11:23:37.211Z,15.57
2023-01-17T11:28:44.296Z,11.98
2023-01-17T11:31:20.696Z,9.50
2023-01-17T11:34:34.315Z,14.03
2023-01-17T11:37:29.195Z,14.73
2023-01-17T11:40:43.825Z,10.60
2023-01-17T11:43:30.838Z,19.00
2023-01-17T11:46:29.036Z,24.93
2023-01-17T11:49:02.491Z,10.20
2023-01-17T11:51:42.018Z,14.90
2023-01-17T11:54:40.088Z,14.47
2023-01-17T11:57:21.875Z,15.10
2023-01-17T12:00:13.003Z,11.43
2023-01-17T12:03:13.204Z,18.20
2023-01-17T12:06:14.324Z,13.83
2023-01-17T12:09:04.796Z,16.03
2023-01-17T12:12:18.614Z,27.90
2023-01-17T12:15:22.673Z,12.43
2023-01-17T12:18:36.836Z,12.93
2023-01-17T12:21:25.248Z,13.77
2023-01-17T12:24:18.823Z,20.37
2023-01-17T12:27:25.845Z,20.10
2023-01-17T12:30:26.792Z,15.67
2023-01-17T12:33:32.096Z,22.90
2023-01-17T12:36:42.849Z,19.83
2023-01-17T12:39:22.437Z,11.63
2023-01-17T12:42:16.660Z,23.23
2023-01-17T12:45:32.961Z,27.23
2023-01-17T12:48:45.065Z,16.73
2023-01-17T12:51:41.010Z,23.90
2023-01-17T12:57:44.043Z,16.63
2023-01-17T13:04:10.331Z,20.57
2023-01-17T13:07:16.714Z,16.10
2023-01-17T13:09:59.826Z,17.60
2023-01-17T13:12:36.338Z,13.50
2023-01-17T13:15:24.755Z,15.20
2023-01-17T13:18:26.050Z,11.67
2023-01-17T13:21:38.004Z,15.93
2023-01-17T13:25:07.481Z,19.63
2023-01-17T13:28:25.984Z,8.90
2023-01-17T13:31:20.714Z,18.83
2023-01-17T13:34:16.246Z,13.43
2023-01-17T13:37:08.579Z,18.13
2023-01-17T13:40:15.965Z,22.50
2023-01-17T13:43:17.619Z,18.07
2023-01-17T13:45:58.369Z,7.95
2023-01-17T13:48:49.346Z,8.97
2023-01-17T13:51:34.168Z,13.20
2023-01-17T13:54:05.335Z,14.10
2023-01-17T13:56:41.371Z,8.75
2023-01-17T13:59:40.003Z,12.77
2023-01-17T14:02:45.992Z,8.57
2023-01-17T14:05:46.292Z,6.33
2023-01-17T14:08:25.396Z,5.50
2023-01-17T14:11:13.371Z,3.60
2023-01-17T14:13:53.523Z,3.53
2023-01-17T14:16:36.379Z,9.87
2023-01-17T14:19:15.286Z,8.37
2023-01-17T14:21:57.153Z,9.33
2023-01-17T14:24:28.102Z,2.30
2023-01-17T14:27:25.440Z,7.53
2023-01-17T14:30:07.668Z,2.33
2023-01-17T14:32:45.387Z,6.82
2023-01-17T14:35:39.842Z,3.13
2023-01-17T14:38:32.881Z,3.97
2023-01-17T14:41:14.342Z,2.57
2023-01-17T14:43:49.633Z,1.77
2023-01-17T14:46:35.909Z,1.73
2023-01-17T14:49:07.329Z,6.20
2023-01-17T14:51:38.504Z,3.90
2023-01-17T14:54:29.100Z,7.78
2023-01-17T14:57:28.765Z,4.88
2023-01-17T15:00:24.440Z,6.03
2023-01-17T15:03:02.837Z,11.07
2023-01-17T15:05:34.139Z,6.60
2023-01-17T15:08:08.312Z,6.00
2023-01-17T15:10:37.356Z,4.03
2023-01-17T15:13:13.579Z,4.03
2023-01-17T15:15:52.573Z,6.33
2023-01-17T15:18:35.059Z,3.30
2023-01-17T15:21:10.680Z,4.07
2023-01-17T15:24:03.284Z,4.83
2023-01-17T15:26:43.240Z,2.80
2023-01-17T15:29:27.990Z,6.90
2023-01-17T15:32:07.463Z,6.13
2023-01-17T15:34:48.411Z,2.37
2023-01-17T15:37:50.369Z,6.63
2023-01-17T15:40:31.287Z,4.07
2023-01-17T15:43:10.857Z,3.67
2023-01-17T15:46:00.369Z,6.70
2023-01-17T15:48:54.265Z,5.27
2023-01-17T15:51:44.946Z,6.90
2023-01-17T15:54:37.773Z,8.20
2023-01-17T15:57:31.249Z,9.55
2023-01-17T16:00:26.041Z,11.67
2023-01-17T16:03:07.083Z,17.07
2023-01-17T16:05:49.361Z,12.50
2023-01-17T16:08:45.341Z,11.50
2023-01-17T16:11:22.235Z,12.50
2023-01-17T16:14:00.026Z,7.87
2023-01-17T16:16:31.076Z,5.57
2023-01-17T16:19:05.480Z,8.10
2023-01-17T16:21:36.005Z,10.20
2023-01-17T16:24:16.127Z,14.07
2023-01-17T16:26:53.948Z,16.50
2023-01-17T16:29:31.450Z,8.57
2023-01-17T16:32:09.335Z,11.33
2023-01-17T16:34:45.873Z,14.98
2023-01-17T16:37:19.731Z,6.83
2023-01-17T16:39:55.462Z,13.47
2023-01-17T16:45:15.597Z,10.87
2023-01-17T16:47:54.341Z,13.73
2023-01-17T16:50:25.579Z,12.80
2023-01-17T16:53:06.444Z,10.40
2023-01-17T16:55:42.441Z,9.23
2023-01-17T16:58:28.301Z,13.23
2023-01-17T17:01:07.551Z,8.97
2023-01-17T17:03:41.821Z,5.80
2023-01-17T17:06:12.599Z,7.77
2023-01-17T17:08:46.997Z,5.73
2023-01-17T17:11:20.277Z,9.63
2023-01-17T17:14:01.037Z,7.97
2023-01-17T17:16:34.645Z,14.03
2023-01-17T17:19:27.423Z,9.47
2023-01-17T17:21:59.453Z,8.67
2023-01-17T17:24:39.039Z,11.87
2023-01-17T17:27:07.897Z,12.80
2023-01-17T17:29:45.918Z,7.37
2023-01-17T17:32:19.519Z,12.93
2023-01-17T17:35:01.925Z,7.47
2023-01-17T17:37:36.941Z,9.67
2023-01-17T17:40:14.922Z,15.33
2023-01-17T17:42:54.605Z,9.97
2023-01-17T17:48:17.556Z,11.07
2023-01-17T17:50:57.222Z,4.67
2023-01-17T17:53:32.606Z,8.50
2023-01-17T17:56:09.795Z,5.80
